^^
Station Historical Data
Daily Summary for May 13, 2017 Units:  English    Metric   Both
« Previous Day
Next Day »
Daily Weekly Monthly Yearly Custom
  High: Low: Average:
Temperature: 51.5 °F 46.4 °F 48.5 °F
Dew Point: 50.0 °F 43.7 °F 46.6 °F
Humidity: 95 % 82 % 93 %
Wind Speed: 6.8 mph 0.0 mph 0.6 mph
Wind Gust: 11.5 mph - -
Wind:- - NE
Pressure: 29.99 in 29.80 in -
Precipitation: 1.43 in    
Historical Graphs
 
 
Tabular Data for May 13, 2017
Time Temperature Dew Point Pressure Wind Wind Speed Wind Gust Humidity Rainfall Rate (Hourly) solar Conditions
00:03 50.2 °F 44.9 °F 29.99 in Calm     82 % 0.00 in 0.0 W/m2 RA
00:05 50.1 °F 44.8 °F 29.99 in Calm     82 % 0.00 in 0.0 W/m2 RA
00:10 49.9 °F 44.9 °F 29.99 in Calm     83 % 0.00 in 0.0 W/m2 OVC
00:15 49.5 °F 44.6 °F 29.99 in Calm     83 % 0.00 in 0.0 W/m2 OVC
00:20 49.3 °F 44.4 °F 29.98 in Calm     83 % 0.00 in 0.0 W/m2 OVC
00:25 49.3 °F 44.7 °F 29.98 in Calm     84 % 0.00 in 0.0 W/m2 OVC
00:30 49.3 °F 44.7 °F 29.98 in NNE 0.5 mph 2.3 mph 84 % 0.00 in 0.0 W/m2 OVC
00:35 49.1 °F 44.5 °F 29.98 in Calm   2.3 mph 84 % 0.00 in 0.0 W/m2 OVC
00:40 49.0 °F 44.7 °F 29.98 in Calm   2.3 mph 85 % 0.00 in 0.0 W/m2 OVC
00:45 49.0 °F 44.7 °F 29.98 in Calm     85 % 0.00 in 0.0 W/m2 OVC
00:50 49.0 °F 44.7 °F 29.98 in Calm     85 % 0.00 in 0.0 W/m2 OVC
00:55 48.9 °F 44.9 °F 29.98 in Calm     86 % 0.00 in 0.0 W/m2 OVC
01:00 48.7 °F 44.4 °F 29.98 in Calm     85 % 0.01 in 0.0 W/m2 RA
01:01 48.7 °F 44.4 °F 29.98 in Calm     85 % 0.01 in 0.0 W/m2 RA
01:06 48.7 °F 44.4 °F 29.98 in Calm     85 % 0.01 in 0.0 W/m2 RA
01:11 48.7 °F 44.4 °F 29.98 in Calm     85 % 0.01 in 0.0 W/m2 OVC
01:16 48.6 °F 44.3 °F 29.97 in Calm     85 % 0.01 in 0.0 W/m2 OVC
01:21 48.4 °F 44.1 °F 29.97 in Calm   1.2 mph 85 % 0.01 in 0.0 W/m2 OVC
01:26 48.4 °F 44.1 °F 29.97 in NNE 0.1 mph 1.2 mph 85 % 0.01 in 0.0 W/m2 OVC
01:31 48.3 °F 44.0 °F 29.97 in Calm   1.2 mph 85 % 0.01 in 0.0 W/m2 OVC
01:36 48.4 °F 44.1 °F 29.97 in Calm   1.2 mph 85 % 0.01 in 0.0 W/m2 OVC
01:41 48.3 °F 44.3 °F 29.97 in Calm     86 % 0.01 in 0.0 W/m2 OVC
01:46 48.3 °F 44.3 °F 29.96 in Calm     86 % 0.01 in 0.0 W/m2 OVC
01:51 48.1 °F 44.1 °F 29.96 in Calm   1.2 mph 86 % 0.01 in 0.0 W/m2 OVC
01:56 48.0 °F 44.0 °F 29.96 in Calm   1.2 mph 86 % 0.01 in 0.0 W/m2 OVC
02:01 48.0 °F 44.0 °F 29.96 in Calm     86 % 0.00 in 0.0 W/m2 -RA
02:06 48.0 °F 44.0 °F 29.96 in Calm     86 % 0.00 in 0.0 W/m2 -RA
02:11 48.1 °F 44.4 °F 29.95 in Calm     87 % 0.00 in 0.0 W/m2 -RA
02:16 48.0 °F 44.3 °F 29.95 in Calm     87 % 0.00 in 0.0 W/m2 -RA
02:21 47.7 °F 44.0 °F 29.95 in Calm   1.2 mph 87 % 0.00 in 0.0 W/m2 -RA
02:26 47.7 °F 44.0 °F 29.95 in Calm   1.2 mph 87 % 0.00 in 0.0 W/m2 -RA
02:31 47.7 °F 44.0 °F 29.95 in Calm     87 % 0.00 in 0.0 W/m2 -RA
02:36 47.7 °F 44.0 °F 29.95 in Calm     87 % 0.00 in 0.0 W/m2 -RA
02:41 47.5 °F 43.8 °F 29.95 in Calm   2.3 mph 87 % 0.00 in 0.0 W/m2 -RA
02:46 47.3 °F 43.9 °F 29.95 in Calm   2.3 mph 88 % 0.00 in 0.0 W/m2 -RA
02:51 47.3 °F 43.9 °F 29.94 in Calm   1.2 mph 88 % 0.01 in 0.0 W/m2 -RA
02:56 47.1 °F 43.7 °F 29.95 in Calm     88 % 0.01 in 0.0 W/m2 -RA
03:02 47.1 °F 44.0 °F 29.94 in Calm     89 % 0.01 in 0.0 W/m2 -RA
03:07 46.9 °F 43.8 °F 29.94 in Calm     89 % 0.01 in 0.0 W/m2 -RA
03:12 46.9 °F 43.8 °F 29.94 in Calm     89 % 0.01 in 0.0 W/m2 -RA
03:17 46.8 °F 43.7 °F 29.94 in Calm     89 % 0.02 in 0.0 W/m2 -RA
03:22 46.8 °F 44.0 °F 29.95 in Calm     90 % 0.02 in 0.0 W/m2 -RA
03:27 47.0 °F 44.2 °F 29.94 in Calm     90 % 0.02 in 0.0 W/m2 -RA
03:32 46.8 °F 44.0 °F 29.95 in Calm     90 % 0.03 in 0.0 W/m2 -RA
03:37 46.7 °F 44.2 °F 29.94 in Calm     91 % 0.03 in 0.0 W/m2 -RA
03:42 46.7 °F 43.9 °F 29.94 in Calm     90 % 0.03 in 0.0 W/m2 -RA
03:47 46.6 °F 44.1 °F 29.94 in Calm     91 % 0.04 in 0.0 W/m2 -RA
03:52 46.6 °F 44.1 °F 29.94 in Calm     91 % 0.03 in 0.0 W/m2 -RA
03:57 46.6 °F 44.1 °F 29.94 in Calm     91 % 0.04 in 0.0 W/m2 -RA
04:02 46.6 °F 44.1 °F 29.94 in Calm     91 % 0.04 in 0.0 W/m2 -RA
04:07 46.6 °F 44.4 °F 29.94 in Calm     92 % 0.05 in 0.0 W/m2 -RA
04:12 46.5 °F 44.3 °F 29.94 in Calm     92 % 0.04 in 0.0 W/m2 -RA
04:17 46.5 °F 44.3 °F 29.94 in Calm     92 % 0.05 in 0.0 W/m2 -RA
04:22 46.5 °F 44.3 °F 29.94 in Calm     92 % 0.06 in 0.0 W/m2 -RA
04:27 46.5 °F 44.3 °F 29.94 in Calm     92 % 0.06 in 0.0 W/m2 -RA
04:32 46.7 °F 44.5 °F 29.93 in Calm     92 % 0.06 in 0.0 W/m2 -RA
04:37 46.5 °F 44.3 °F 29.93 in Calm   1.2 mph 92 % 0.07 in 0.0 W/m2 -RA
04:42 46.5 °F 44.3 °F 29.93 in Calm   1.2 mph 92 % 0.08 in 0.0 W/m2 -RA
04:47 46.5 °F 44.6 °F 29.93 in Calm     93 % 0.07 in 0.0 W/m2 -RA
04:52 46.4 °F 44.5 °F 29.93 in Calm     93 % 0.08 in 0.0 W/m2 -RA
04:57 46.6 °F 44.7 °F 29.92 in Calm     93 % 0.08 in 0.0 W/m2 -RA
05:02 46.7 °F 44.8 °F 29.92 in Calm   1.2 mph 93 % 0.08 in 0.0 W/m2 RA
05:07 46.8 °F 44.9 °F 29.92 in Calm   1.2 mph 93 % 0.08 in 0.0 W/m2 RA
05:12 46.7 °F 44.8 °F 29.92 in Calm     93 % 0.09 in 0.0 W/m2 RA
05:17 46.7 °F 44.8 °F 29.92 in Calm     93 % 0.08 in 0.0 W/m2 RA
05:22 46.6 °F 44.7 °F 29.91 in Calm   1.2 mph 93 % 0.08 in 0.0 W/m2 RA
05:27 46.6 °F 44.7 °F 29.92 in Calm   1.2 mph 93 % 0.09 in 0.0 W/m2 RA
05:32 46.6 °F 44.7 °F 29.92 in Calm   1.2 mph 93 % 0.09 in 0.0 W/m2 RA
05:37 46.7 °F 44.8 °F 29.91 in Calm     93 % 0.09 in 0.0 W/m2 RA
05:42 46.7 °F 44.8 °F 29.91 in Calm     93 % 0.08 in 0.0 W/m2 RA
05:47 46.7 °F 44.8 °F 29.91 in Calm     93 % 0.09 in 0.0 W/m2 RA
05:52 46.6 °F 44.7 °F 29.91 in Calm     93 % 0.09 in 0.0 W/m2 RA
05:54 46.6 °F 44.7 °F 29.91 in Calm   1.2 mph 93 % 0.09 in 0.0 W/m2 RA
05:59 46.7 °F 45.1 °F 29.91 in Calm   1.2 mph 94 % 0.09 in 0.0 W/m2 RA
06:04 46.6 °F 45.0 °F 29.91 in Calm     94 % 0.10 in 0.0 W/m2 -RA
06:09 46.5 °F 44.6 °F 29.91 in Calm     93 % 0.09 in 0.0 W/m2 -RA
06:14 46.5 °F 44.9 °F 29.91 in Calm   1.2 mph 94 % 0.09 in 0.0 W/m2 -RA
06:19 46.5 °F 44.9 °F 29.91 in Calm   1.2 mph 94 % 0.09 in 7.0 W/m2 -RA
06:24 46.5 °F 44.9 °F 29.91 in Calm   1.2 mph 94 % 0.09 in 7.0 W/m2 -RA
06:29 46.6 °F 45.0 °F 29.91 in Calm   2.3 mph 94 % 0.10 in 9.0 W/m2 -RA
06:34 46.7 °F 45.1 °F 29.91 in Calm   2.3 mph 94 % 0.09 in 9.0 W/m2 -RA
06:39 46.7 °F 45.1 °F 29.91 in Calm   2.3 mph 94 % 0.09 in 9.0 W/m2 -RA
06:44 46.8 °F 45.2 °F 29.91 in Calm     94 % 0.09 in 11.0 W/m2 -RA
06:49 46.8 °F 45.2 °F 29.91 in Calm   1.2 mph 94 % 0.10 in 11.0 W/m2 -RA
06:55 46.8 °F 45.2 °F 29.91 in Calm   1.2 mph 94 % 0.10 in 12.0 W/m2 -RA
07:00 46.8 °F 45.2 °F 29.91 in Calm   1.2 mph 94 % 0.10 in 12.0 W/m2 -RA
07:05 46.7 °F 45.1 °F 29.91 in Calm   1.2 mph 94 % 0.10 in 12.0 W/m2 RA
07:10 46.7 °F 45.1 °F 29.91 in NNE 0.6 mph 2.3 mph 94 % 0.10 in 14.0 W/m2 RA
07:15 46.7 °F 45.1 °F 29.91 in Calm   2.3 mph 94 % 0.12 in 16.0 W/m2 RA
07:20 46.7 °F 45.1 °F 29.91 in Calm   2.3 mph 94 % 0.10 in 19.0 W/m2 RA
07:25 46.6 °F 45.0 °F 29.91 in Calm   2.3 mph 94 % 0.12 in 21.0 W/m2 RA
07:30 46.5 °F 44.9 °F 29.91 in NNE 0.1 mph 3.5 mph 94 % 0.10 in 23.0 W/m2 RA
07:35 46.6 °F 45.0 °F 29.91 in Calm   3.5 mph 94 % 0.10 in 23.0 W/m2 RA
07:40 46.7 °F 45.1 °F 29.91 in Calm   1.2 mph 94 % 0.12 in 25.0 W/m2 RA
07:45 46.8 °F 45.2 °F 29.90 in Calm   1.2 mph 94 % 0.12 in 25.0 W/m2 RA
07:50 46.7 °F 45.1 °F 29.90 in Calm   2.3 mph 94 % 0.12 in 25.0 W/m2 RA
07:55 46.7 °F 45.1 °F 29.90 in Calm   3.5 mph 94 % 0.12 in 25.0 W/m2 RA
08:00 46.7 °F 45.1 °F 29.90 in Calm   3.5 mph 94 % 0.12 in 26.0 W/m2 RA
08:05 46.6 °F 45.0 °F 29.90 in Calm   2.3 mph 94 % 0.13 in 26.0 W/m2 RA
08:10 46.5 °F 44.9 °F 29.90 in Calm   2.3 mph 94 % 0.13 in 28.0 W/m2 RA
08:15 46.6 °F 45.0 °F 29.90 in Calm   2.3 mph 94 % 0.13 in 28.0 W/m2 RA
08:20 46.7 °F 45.1 °F 29.90 in Calm   3.5 mph 94 % 0.14 in 32.0 W/m2 RA
08:25 46.8 °F 45.2 °F 29.90 in NNE 0.2 mph 3.5 mph 94 % 0.13 in 35.0 W/m2 RA
08:30 47.0 °F 45.4 °F 29.89 in NNE 0.2 mph 2.3 mph 94 % 0.15 in 37.0 W/m2 RA
08:35 47.0 °F 45.4 °F 29.89 in Calm   2.3 mph 94 % 0.15 in 42.0 W/m2 RA
08:40 46.9 °F 45.3 °F 29.89 in NNE 1.0 mph 3.5 mph 94 % 0.15 in 53.0 W/m2 RA
08:45 47.1 °F 45.5 °F 29.89 in Calm   3.5 mph 94 % 0.15 in 67.0 W/m2 RA
08:50 47.2 °F 45.6 °F 29.89 in NNE 0.7 mph 3.5 mph 94 % 0.15 in 63.0 W/m2 RA
08:55 47.2 °F 45.6 °F 29.89 in North 1.6 mph 3.5 mph 94 % 0.16 in 65.0 W/m2 RA
09:00 47.2 °F 45.6 °F 29.88 in North 1.5 mph 6.9 mph 94 % 0.16 in 74.0 W/m2 RA
09:05 47.2 °F 45.6 °F 29.88 in Calm   6.9 mph 94 % 0.15 in 62.0 W/m2 +RA
09:10 47.2 °F 45.6 °F 29.88 in North 0.7 mph 6.9 mph 94 % 0.16 in 69.0 W/m2 +RA
09:15 47.2 °F 45.6 °F 29.88 in NNE 0.6 mph 5.8 mph 94 % 0.16 in 77.0 W/m2 +RA
09:20 47.3 °F 45.7 °F 29.88 in Calm   3.5 mph 94 % 0.16 in 70.0 W/m2 +RA
09:25 47.4 °F 45.8 °F 29.88 in Calm   3.5 mph 94 % 0.16 in 69.0 W/m2 +RA
09:30 47.3 °F 45.7 °F 29.88 in Calm   1.2 mph 94 % 0.15 in 63.0 W/m2 +RA
09:35 47.4 °F 45.8 °F 29.88 in North 0.6 mph 1.2 mph 94 % 0.15 in 84.0 W/m2 RA
09:40 47.6 °F 46.2 °F 29.88 in Calm   2.3 mph 95 % 0.15 in 72.0 W/m2 RA
09:46 47.6 °F 46.2 °F 29.88 in Calm   2.3 mph 95 % 0.15 in 69.0 W/m2 RA
09:51 47.7 °F 46.3 °F 29.88 in Calm   1.2 mph 95 % 0.15 in 69.0 W/m2 RA
09:56 47.7 °F 46.3 °F 29.88 in Calm   2.3 mph 95 % 0.14 in 60.0 W/m2 RA
10:01 47.9 °F 46.5 °F 29.88 in NNE 0.2 mph 2.3 mph 95 % 0.15 in 51.0 W/m2 RA
10:06 47.9 °F 46.5 °F 29.88 in NNW 0.2 mph 3.5 mph 95 % 0.15 in 42.0 W/m2 RA
10:11 47.9 °F 46.5 °F 29.88 in Calm   3.5 mph 95 % 0.15 in 53.0 W/m2 RA
10:16 47.9 °F 46.5 °F 29.88 in NNW 0.1 mph 2.3 mph 95 % 0.15 in 56.0 W/m2 RA
10:21 48.1 °F 46.7 °F 29.88 in Calm   1.2 mph 95 % 0.16 in 67.0 W/m2 RA
10:26 48.1 °F 46.7 °F 29.88 in Calm   1.2 mph 95 % 0.16 in 63.0 W/m2 RA
10:31 48.2 °F 46.8 °F 29.88 in Calm   1.2 mph 95 % 0.16 in 79.0 W/m2 RA
10:36 48.3 °F 46.9 °F 29.88 in NNW 0.8 mph 3.5 mph 95 % 0.17 in 84.0 W/m2 RA
10:41 48.3 °F 46.9 °F 29.88 in NNW 0.2 mph 3.5 mph 95 % 0.17 in 84.0 W/m2 RA
10:46 48.4 °F 47.0 °F 29.88 in NNW 0.2 mph 3.5 mph 95 % 0.17 in 76.0 W/m2 RA
10:51 48.5 °F 47.1 °F 29.88 in NNW 0.5 mph 2.3 mph 95 % 0.17 in 90.0 W/m2 RA
10:56 48.5 °F 47.1 °F 29.88 in North 0.1 mph 2.3 mph 95 % 0.18 in 90.0 W/m2 RA
11:01 48.5 °F 47.1 °F 29.88 in North 0.2 mph 2.3 mph 95 % 0.17 in 104.0 W/m2 +RA
11:06 48.6 °F 47.2 °F 29.87 in North 0.2 mph 3.5 mph 95 % 0.18 in 134.0 W/m2 +RA
11:11 48.7 °F 47.3 °F 29.88 in NNE 0.6 mph 3.5 mph 95 % 0.17 in 116.0 W/m2 +RA
11:16 48.7 °F 47.3 °F 29.88 in NNE 0.9 mph 3.5 mph 95 % 0.18 in 128.0 W/m2 +RA
11:21 48.8 °F 47.4 °F 29.88 in Calm   3.5 mph 95 % 0.17 in 116.0 W/m2 +RA
11:26 48.8 °F 47.4 °F 29.88 in Calm   3.5 mph 95 % 0.17 in 93.0 W/m2 +RA
11:31 48.8 °F 47.4 °F 29.88 in Calm   1.2 mph 95 % 0.17 in 105.0 W/m2 RA
11:36 48.9 °F 47.5 °F 29.88 in Calm   3.5 mph 95 % 0.16 in 123.0 W/m2 RA
11:41 48.9 °F 47.5 °F 29.88 in North 0.7 mph 3.5 mph 95 % 0.16 in 139.0 W/m2 RA
11:46 49.0 °F 47.6 °F 29.88 in North 1.0 mph 3.5 mph 95 % 0.16 in 132.0 W/m2 RA
11:51 49.0 °F 47.6 °F 29.88 in North 0.6 mph 3.5 mph 95 % 0.16 in 98.0 W/m2 RA
11:56 49.0 °F 47.6 °F 29.88 in North 0.2 mph 3.5 mph 95 % 0.15 in 121.0 W/m2 RA
12:01 49.0 °F 47.6 °F 29.88 in North 0.1 mph 3.5 mph 95 % 0.16 in 107.0 W/m2 RA
12:06 49.0 °F 47.6 °F 29.88 in NNE 0.2 mph 3.5 mph 95 % 0.15 in 127.0 W/m2 RA
12:12 49.2 °F 47.8 °F 29.87 in NNE 0.7 mph 2.3 mph 95 % 0.15 in 160.0 W/m2 RA
12:17 49.4 °F 48.0 °F 29.87 in North 2.2 mph 3.5 mph 95 % 0.14 in 134.0 W/m2 RA
12:22 49.3 °F 47.9 °F 29.87 in North 2.2 mph 4.6 mph 95 % 0.14 in 160.0 W/m2 RA
12:27 49.2 °F 47.8 °F 29.87 in NNW 1.5 mph 6.9 mph 95 % 0.14 in 127.0 W/m2 RA
12:32 49.1 °F 47.7 °F 29.87 in Calm   9.2 mph 95 % 0.13 in 185.0 W/m2 RA
12:37 49.4 °F 48.0 °F 29.86 in Calm   9.2 mph 95 % 0.13 in 134.0 W/m2 RA
12:42 49.3 °F 47.9 °F 29.86 in NNE 1.6 mph 3.5 mph 95 % 0.13 in 200.0 W/m2 RA
12:47 49.4 °F 48.0 °F 29.86 in NNE 1.2 mph 8.1 mph 95 % 0.13 in 163.0 W/m2 RA
12:52 49.4 °F 48.0 °F 29.86 in NNE 1.9 mph 8.1 mph 95 % 0.13 in 181.0 W/m2 RA
12:57 49.4 °F 48.0 °F 29.86 in NNE 0.2 mph 6.9 mph 95 % 0.12 in 171.0 W/m2 RA
13:02 49.7 °F 48.3 °F 29.86 in NNE 0.1 mph 6.9 mph 95 % 0.10 in 176.0 W/m2 RA
13:07 49.7 °F 48.3 °F 29.86 in NNE 1.5 mph 4.6 mph 95 % 0.09 in 162.0 W/m2 OVC
13:12 49.8 °F 48.4 °F 29.86 in North 0.1 mph 4.6 mph 95 % 0.09 in 151.0 W/m2 RA
13:17 49.9 °F 48.5 °F 29.85 in NNE 4.2 mph 8.1 mph 95 % 0.08 in 162.0 W/m2 RA
13:22 49.9 °F 48.5 °F 29.85 in NNE 3.2 mph 9.2 mph 95 % 0.08 in 179.0 W/m2 RA
13:27 50.0 °F 48.3 °F 29.85 in NNE 0.6 mph 9.2 mph 94 % 0.07 in 134.0 W/m2 RA
13:32 50.0 °F 48.6 °F 29.85 in NNE 2.2 mph 9.2 mph 95 % 0.08 in 171.0 W/m2 -RA
13:37 50.2 °F 48.8 °F 29.85 in NNE 0.5 mph 8.1 mph 95 % 0.07 in 155.0 W/m2 -RA
13:42 50.2 °F 48.8 °F 29.85 in Calm   5.8 mph 95 % 0.06 in 123.0 W/m2 -RA
13:47 50.1 °F 48.4 °F 29.85 in North 2.6 mph 6.9 mph 94 % 0.06 in 139.0 W/m2 -RA
13:52 50.1 °F 48.7 °F 29.84 in NNE 2.1 mph 6.9 mph 95 % 0.05 in 204.0 W/m2 -RA
13:57 50.2 °F 48.8 °F 29.84 in North 1.3 mph 6.9 mph 95 % 0.04 in 209.0 W/m2 -RA
14:02 50.4 °F 49.0 °F 29.84 in NNE 1.9 mph 8.1 mph 95 % 0.05 in 213.0 W/m2 RA
14:07 50.4 °F 48.7 °F 29.84 in North 2.4 mph 8.1 mph 94 % 0.05 in 239.0 W/m2 RA
14:12 50.6 °F 48.9 °F 29.84 in North 1.7 mph 8.1 mph 94 % 0.05 in 218.0 W/m2 RA
14:17 50.8 °F 49.1 °F 29.84 in NNE 1.5 mph 8.1 mph 94 % 0.05 in 209.0 W/m2 RA
14:22 51.0 °F 49.3 °F 29.84 in NNE 0.7 mph 5.8 mph 94 % 0.04 in 135.0 W/m2 OVC
14:27 50.8 °F 49.1 °F 29.84 in North 0.9 mph 9.2 mph 94 % 0.05 in 176.0 W/m2 RA
14:32 50.8 °F 49.1 °F 29.83 in North 1.8 mph 9.2 mph 94 % 0.04 in 165.0 W/m2 -RA
14:37 50.9 °F 49.2 °F 29.83 in NNE 0.9 mph 8.1 mph 94 % 0.05 in 172.0 W/m2 -RA
14:42 50.9 °F 49.2 °F 29.83 in NNE 0.3 mph 8.1 mph 94 % 0.05 in 195.0 W/m2 -RA
14:47 51.4 °F 50.0 °F 29.83 in NNE 0.1 mph 6.9 mph 95 % 0.04 in 181.0 W/m2 -RA
14:52 51.0 °F 49.3 °F 29.83 in NNE 0.6 mph 5.8 mph 94 % 0.05 in 193.0 W/m2 -RA
14:57 51.1 °F 49.4 °F 29.83 in NNE 3.8 mph 6.9 mph 94 % 0.05 in 211.0 W/m2 -RA
15:02 51.2 °F 49.5 °F 29.83 in North 3.2 mph 9.2 mph 94 % 0.05 in 262.0 W/m2 -RA
15:07 51.4 °F 49.7 °F 29.83 in North 1.8 mph 9.2 mph 94 % 0.05 in 214.0 W/m2 -RA
15:08 51.4 °F 49.7 °F 29.82 in NNE 2.3 mph 9.2 mph 94 % 0.05 in 214.0 W/m2 -RA
15:13 51.3 °F 49.6 °F 29.82 in ENE 0.5 mph 8.1 mph 94 % 0.05 in 239.0 W/m2 -RA
15:18 51.3 °F 49.6 °F 29.82 in NNE 2.3 mph 9.2 mph 94 % 0.05 in 225.0 W/m2 -RA
15:23 51.5 °F 49.8 °F 29.82 in NNE 3.7 mph 9.2 mph 94 % 0.04 in 160.0 W/m2 -RA
15:28 51.3 °F 49.6 °F 29.82 in NNE 4.1 mph 9.2 mph 94 % 0.04 in 165.0 W/m2 -RA
15:33 51.2 °F 49.5 °F 29.82 in NE 3.1 mph 9.2 mph 94 % 0.04 in 246.0 W/m2 -RA
15:38 51.2 °F 49.5 °F 29.82 in NNE 1.8 mph 9.2 mph 94 % 0.03 in 267.0 W/m2 -RA
15:43 51.5 °F 49.8 °F 29.81 in NNE 0.8 mph 9.2 mph 94 % 0.03 in 190.0 W/m2 -RA
15:48 51.5 °F 49.8 °F 29.81 in NNW 6.8 mph 8.1 mph 94 % 0.03 in 236.0 W/m2 -RA
15:53 51.1 °F 49.4 °F 29.81 in NNE 5.4 mph 11.5 mph 94 % 0.03 in 230.0 W/m2 -RA
15:58 51.2 °F 49.5 °F 29.81 in NE 3.9 mph 11.5 mph 94 % 0.03 in 197.0 W/m2 -RA
16:03 51.4 °F 49.7 °F 29.81 in NNE 0.4 mph 10.4 mph 94 % 0.02 in 141.0 W/m2 -RA
16:08 51.4 °F 49.7 °F 29.81 in Calm   10.4 mph 94 % 0.02 in 86.0 W/m2 -RA
16:13 51.2 °F 49.5 °F 29.81 in NNE 1.4 mph 4.6 mph 94 % 0.01 in 109.0 W/m2 -RA
16:18 51.1 °F 49.4 °F 29.81 in NNE 2.4 mph 11.5 mph 94 % 0.02 in 76.0 W/m2 -RA
16:23 50.9 °F 49.2 °F 29.82 in North 2.2 mph 11.5 mph 94 % 0.03 in 98.0 W/m2 -RA
16:28 50.9 °F 49.2 °F 29.82 in North 1.4 mph 6.9 mph 94 % 0.03 in 165.0 W/m2 -RA
16:33 50.8 °F 49.1 °F 29.82 in NNE 1.4 mph 6.9 mph 94 % 0.03 in 176.0 W/m2 -RA
16:38 51.1 °F 49.4 °F 29.81 in NNE 0.9 mph 5.8 mph 94 % 0.03 in 139.0 W/m2 -RA
16:43 51.3 °F 49.6 °F 29.82 in NNE 2.7 mph 5.8 mph 94 % 0.04 in 146.0 W/m2 -RA
16:48 51.0 °F 49.3 °F 29.82 in NNE 4.0 mph 6.9 mph 94 % 0.04 in 125.0 W/m2 -RA
16:53 50.6 °F 48.9 °F 29.82 in NNE 0.3 mph 8.1 mph 94 % 0.03 in 118.0 W/m2 -RA
16:58 50.7 °F 49.0 °F 29.82 in NNE 0.8 mph 8.1 mph 94 % 0.04 in 100.0 W/m2 -RA
17:03 50.6 °F 48.9 °F 29.82 in NNW 1.3 mph 6.9 mph 94 % 0.04 in 109.0 W/m2 -RA
17:07 50.6 °F 48.9 °F 29.82 in North 0.3 mph 6.9 mph 94 % 0.04 in 121.0 W/m2 -RA
17:12 50.6 °F 48.9 °F 29.82 in NNE 2.9 mph 8.1 mph 94 % 0.04 in 83.0 W/m2 -RA
17:17 50.4 °F 48.7 °F 29.82 in NNE 5.3 mph 9.2 mph 94 % 0.04 in 79.0 W/m2 -RA
17:22 50.1 °F 48.4 °F 29.82 in NNE 4.0 mph 9.2 mph 94 % 0.03 in 72.0 W/m2 -RA
17:27 50.1 °F 48.4 °F 29.82 in North 0.8 mph 9.2 mph 94 % 0.03 in 111.0 W/m2 -RA
17:32 50.1 °F 48.4 °F 29.82 in NNE 2.1 mph 8.1 mph 94 % 0.03 in 83.0 W/m2 -RA
17:37 50.2 °F 48.5 °F 29.82 in North 0.5 mph 4.6 mph 94 % 0.04 in 83.0 W/m2 -RA
17:42 50.4 °F 48.7 °F 29.82 in Calm   4.6 mph 94 % 0.03 in 67.0 W/m2 -RA
17:48 50.4 °F 48.7 °F 29.83 in Calm   3.5 mph 94 % 0.03 in 46.0 W/m2 -RA
17:53 50.2 °F 48.5 °F 29.83 in NNE 2.1 mph 5.8 mph 94 % 0.03 in 58.0 W/m2 -RA
17:58 50.2 °F 48.5 °F 29.83 in ENE 2.9 mph 5.8 mph 94 % 0.02 in 62.0 W/m2 -RA
18:03 49.9 °F 48.2 °F 29.83 in North 0.1 mph 6.9 mph 94 % 0.02 in 54.0 W/m2 -RA
18:08 49.9 °F 48.2 °F 29.83 in Calm   8.1 mph 94 % 0.03 in 63.0 W/m2 -RA
18:13 49.8 °F 48.1 °F 29.83 in NNE 2.0 mph 11.5 mph 94 % 0.03 in 60.0 W/m2 -RA
18:18 49.6 °F 47.9 °F 29.83 in NNE 1.4 mph 11.5 mph 94 % 0.02 in 47.0 W/m2 -RA
18:23 49.4 °F 47.7 °F 29.83 in Calm   8.1 mph 94 % 0.02 in 49.0 W/m2 -RA
18:28 49.2 °F 47.5 °F 29.83 in NNE 0.3 mph 8.1 mph 94 % 0.02 in 58.0 W/m2 -RA
18:33 49.2 °F 47.5 °F 29.83 in NNE 1.3 mph 8.1 mph 94 % 0.02 in 56.0 W/m2 -RA
18:38 49.2 °F 47.5 °F 29.83 in Calm   6.9 mph 94 % 0.02 in 53.0 W/m2 -RA
18:43 49.3 °F 47.6 °F 29.83 in NNE 1.7 mph 4.6 mph 94 % 0.02 in 47.0 W/m2 -RA
18:48 49.3 °F 47.6 °F 29.83 in NNE 0.3 mph 4.6 mph 94 % 0.02 in 51.0 W/m2 -RA
18:53 49.4 °F 47.7 °F 29.83 in NNE 0.9 mph 4.6 mph 94 % 0.02 in 54.0 W/m2 -RA
18:58 49.4 °F 47.7 °F 29.83 in NNE 1.1 mph 4.6 mph 94 % 0.02 in 49.0 W/m2 -RA
19:03 49.4 °F 47.7 °F 29.83 in NNE 1.5 mph 4.6 mph 94 % 0.02 in 42.0 W/m2 -RA
19:08 49.3 °F 47.6 °F 29.83 in Calm   4.6 mph 94 % 0.01 in 35.0 W/m2 -RA
19:13 49.1 °F 47.4 °F 29.83 in NNE 2.1 mph 4.6 mph 94 % 0.01 in 28.0 W/m2 -RA
19:18 48.9 °F 47.2 °F 29.83 in Calm   4.6 mph 94 % 0.02 in 23.0 W/m2 -RA
19:23 48.8 °F 47.2 °F 29.83 in Calm   4.6 mph 94 % 0.02 in 18.0 W/m2 -RA
19:28 48.8 °F 47.2 °F 29.83 in Calm   3.5 mph 94 % 0.02 in 12.0 W/m2 -RA
19:33 48.7 °F 47.1 °F 29.83 in NNE 0.1 mph 2.3 mph 94 % 0.02 in 9.0 W/m2 -RA
19:38 48.7 °F 47.1 °F 29.83 in Calm   2.3 mph 94 % 0.01 in 7.0 W/m2 -RA
19:43 48.7 °F 47.1 °F 29.83 in Calm   2.3 mph 94 % 0.01 in 7.0 W/m2 -RA
19:48 48.7 °F 47.1 °F 29.83 in North 0.5 mph   94 % 0.01 in 7.0 W/m2 -RA
19:53 48.7 °F 47.1 °F 29.83 in NNW 0.6 mph 3.5 mph 94 % 0.01 in 5.0 W/m2 -RA
19:59 48.6 °F 47.0 °F 29.83 in North 1.5 mph 3.5 mph 94 % 0.01 in 0.0 W/m2 -RA
20:04 48.6 °F 47.0 °F 29.83 in NNE 3.2 mph 4.6 mph 94 % 0.01 in 0.0 W/m2 -RA
20:09 48.5 °F 46.9 °F 29.83 in NNE 0.2 mph 4.6 mph 94 % 0.01 in 0.0 W/m2 -RA
20:14 48.5 °F 46.9 °F 29.83 in NNE 0.3 mph 4.6 mph 94 % 0.01 in 0.0 W/m2 -RA
20:19 48.4 °F 46.8 °F 29.83 in Calm   3.5 mph 94 % 0.00 in 0.0 W/m2 -RA
20:24 48.4 °F 46.8 °F 29.83 in Calm   3.5 mph 94 % 0.00 in 0.0 W/m2 -RA
20:29 48.4 °F 46.8 °F 29.83 in Calm   3.5 mph 94 % 0.01 in 0.0 W/m2 -RA
20:34 48.3 °F 46.7 °F 29.83 in Calm     94 % 0.01 in 0.0 W/m2 -RA
20:39 48.4 °F 47.0 °F 29.83 in Calm     95 % 0.01 in 0.0 W/m2 -RA
20:44 48.4 °F 46.8 °F 29.83 in Calm     94 % 0.01 in 0.0 W/m2 -RA
20:49 48.4 °F 47.0 °F 29.83 in Calm     95 % 0.01 in 0.0 W/m2 -RA
20:54 48.4 °F 47.0 °F 29.82 in Calm     95 % 0.01 in 0.0 W/m2 -RA
20:59 48.4 °F 47.0 °F 29.82 in Calm     95 % 0.01 in 0.0 W/m2 -RA
21:04 48.5 °F 47.1 °F 29.82 in Calm     95 % 0.01 in 0.0 W/m2 OVC
21:09 48.5 °F 47.1 °F 29.82 in Calm     95 % 0.01 in 0.0 W/m2 OVC
21:14 48.4 °F 47.0 °F 29.82 in Calm     95 % 0.01 in 0.0 W/m2 OVC
21:19 48.4 °F 47.0 °F 29.82 in Calm     95 % 0.01 in 0.0 W/m2 OVC
21:24 48.4 °F 47.0 °F 29.82 in Calm     95 % 0.01 in 0.0 W/m2 OVC
21:29 48.5 °F 47.1 °F 29.82 in Calm     95 % 0.00 in 0.0 W/m2 OVC
21:34 48.5 °F 47.1 °F 29.82 in Calm     95 % 0.00 in 0.0 W/m2 OVC
21:39 48.5 °F 47.1 °F 29.81 in Calm     95 % 0.00 in 0.0 W/m2 OVC
21:44 48.5 °F 47.1 °F 29.81 in Calm     95 % 0.00 in 0.0 W/m2 OVC
21:49 48.5 °F 47.1 °F 29.81 in Calm     95 % 0.00 in 0.0 W/m2 OVC
21:54 48.5 °F 47.1 °F 29.81 in Calm     95 % 0.00 in 0.0 W/m2 OVC
21:59 48.5 °F 47.1 °F 29.81 in Calm     95 % 0.00 in 0.0 W/m2 OVC
22:04 48.6 °F 47.2 °F 29.81 in Calm     95 % 0.00 in 0.0 W/m2 OVC
22:09 48.6 °F 47.2 °F 29.81 in Calm     95 % 0.00 in 0.0 W/m2 OVC
22:14 48.6 °F 47.2 °F 29.81 in Calm     95 % 0.00 in 0.0 W/m2 OVC
22:19 48.7 °F 47.3 °F 29.81 in Calm     95 % 0.00 in 0.0 W/m2 OVC
22:24 48.7 °F 47.3 °F 29.81 in Calm     95 % 0.00 in 0.0 W/m2 OVC
22:30 48.8 °F 47.4 °F 29.81 in Calm     95 % 0.00 in 0.0 W/m2 OVC
22:35 48.6 °F 47.2 °F 29.81 in Calm     95 % 0.00 in 0.0 W/m2 OVC
22:40 48.6 °F 47.2 °F 29.81 in Calm     95 % 0.00 in 0.0 W/m2 OVC
22:45 48.4 °F 47.0 °F 29.81 in Calm   1.2 mph 95 % 0.00 in 0.0 W/m2 OVC
22:50 48.4 °F 47.0 °F 29.81 in Calm   3.0 mph 95 % 0.00 in 0.0 W/m2 OVC
22:55 48.3 °F 46.9 °F 29.81 in Calm     95 % 0.00 in 0.0 W/m2 OVC
23:00 48.2 °F 46.8 °F 29.81 in Calm     95 % 0.00 in 0.0 W/m2 OVC
23:02 48.1 °F 46.7 °F 29.81 in Calm     95 % 0.00 in 0.0 W/m2 OVC
23:05 48.0 °F 46.6 °F 29.81 in Calm     95 % 0.00 in 0.0 W/m2 OVC
23:10 48.2 °F 46.8 °F 29.81 in Calm     95 % 0.00 in 0.0 W/m2 OVC
23:15 48.3 °F 46.9 °F 29.81 in Calm     95 % 0.00 in 0.0 W/m2 OVC
23:20 48.3 °F 46.9 °F 29.81 in Calm     95 % 0.00 in 0.0 W/m2 OVC
23:25 48.2 °F 46.8 °F 29.81 in Calm     95 % 0.00 in 0.0 W/m2 OVC
23:30 48.3 °F 46.9 °F 29.80 in Calm     95 % 0.00 in 0.0 W/m2 OVC
23:35 48.4 °F 47.0 °F 29.80 in Calm     95 % 0.00 in 0.0 W/m2 OVC
23:40 48.2 °F 46.8 °F 29.80 in Calm     95 % 0.00 in 0.0 W/m2 OVC
23:45 48.3 °F 46.9 °F 29.80 in Calm     95 % 0.00 in 0.0 W/m2 OVC
23:50 48.2 °F 46.8 °F 29.80 in Calm     95 % 0.00 in 0.0 W/m2 OVC
23:55 48.1 °F 46.7 °F 29.80 in Calm     95 % 0.00 in 0.0 W/m2 OVC
Air Products Campus Weather
Compliments of Weather Underground - 3.5 mb